Phoenix, AZ (85017)

5:02 PM MST on August 28, 2015 (GMT -0700)
Phoenix S of Christown | | Change Station
CLOSE
Current Station
Personal Weather Station
Location: Phoenix, AZ
Elevation: 1152 ft
Nearby Weather Stations

Elev 1152 ft 33.51 °N, 112.10 °W | Updated 30 seconds ago

Partly Cloudy
Partly Cloudy
108.6 °F
Feels Like 109 °F
N
3.0
Wind Variable Wind from WSW
Gusts 8.0 mph

Today
High -- | Low -- °F
--% Chance of Precip.
Yesterday
High -- | Low -- °F
Precip. -- in
5:59 AM 6:59 PM
Waxing Gibbous, 99% visible
Pressure 29.68 in
Visibility 10.0 miles
Clouds Few 10000 ft
Few 15000 ft
Scattered Clouds 20000 ft
Heat Index 109 °F
Dew Point 58 °F
Humidity 19%
Rainfall 0.00 in
Snow Depth Not available.
UV 2 out of 12
Pollen 5.00 out of 12
Air Quality Not available.
Flu Activity Not available.
METAR KPHX 282351Z VRB04KT 10SM FEW100 FEW150 SCT200 42/11 A2975 RMK AO2 SLP050 T04170106 10428 20350 56025
Pressure 29.68 in
Visibility 10.0 miles
Clouds Few 10000 ft
Few 15000 ft
Scattered Clouds 20000 ft
Heat Index 109 °F
Dew Point 58 °F
Humidity 19%
Rainfall 0.00 in
Snow Depth Not available.
UV 2 out of 12
Pollen 5.00 out of 12
Air Quality Not available.
Flu Activity Not available.
METAR KPHX 282351Z VRB04KT 10SM FEW100 FEW150 SCT200 42/11 A2975 RMK AO2 SLP050 T04170106 10428 20350 56025

10-Day Weather Forecast

×

Almanac

Astronomy

Aug. 28, 2015 Rise Set
Actual Time
Civil Twilight
Nautical Twilight
Astronomical Twilight
Moon
Length of Visible Light
Length of Day
Tomorrow will be .
, % of the Moon is Illuminated

Today's Extremes

State Highs State Lows

Community

WunderPhotos

Upload Photos

1,850,538 photos uploaded!

WunderBlogs® & News

Nearby

Air Quality

  Air Quality AQ Index Pollutant
Not available.

Snow Depth

Station Depth Elevation

Earthquake Activity

City Distance Mag. Time & Date
Minimum magnitude displayed is 2.5.

Coastal Water Temperatures

Place Temperature

Stations

Nearby Weather Stations

Station Location Temp. Windchill Dew Point Humidity Wind Precip. Elev Updated Type